createdAt,value
2022-10-09T00:01:08.737Z,14.63
2022-10-09T00:03:37.578Z,11.07
2022-10-09T00:06:10.108Z,10.30
2022-10-09T00:08:39.297Z,12.23
2022-10-09T00:11:06.917Z,16.20
2022-10-09T00:13:34.430Z,10.00
2022-10-09T00:16:03.490Z,7.07
2022-10-09T00:18:30.976Z,11.73
2022-10-09T00:20:58.897Z,15.77
2022-10-09T00:23:27.582Z,11.50
2022-10-09T00:25:56.693Z,11.55
2022-10-09T00:28:25.634Z,10.73
2022-10-09T00:30:53.636Z,16.58
2022-10-09T00:33:21.287Z,11.18
2022-10-09T00:35:49.145Z,10.13
2022-10-09T00:38:16.957Z,12.52
2022-10-09T00:40:45.602Z,18.42
2022-10-09T00:43:16.660Z,12.60
2022-10-09T00:45:46.333Z,11.60
2022-10-09T00:48:13.694Z,9.80
2022-10-09T00:50:43.094Z,10.20
2022-10-09T00:53:13.591Z,17.40
2022-10-09T00:55:41.545Z,9.35
2022-10-09T00:58:10.622Z,14.82
2022-10-09T01:00:38.028Z,13.50
2022-10-09T01:03:05.497Z,12.23
2022-10-09T01:05:37.471Z,10.70
2022-10-09T01:08:09.074Z,10.25
2022-10-09T01:10:39.161Z,12.88
2022-10-09T01:13:12.367Z,11.75
2022-10-09T01:15:43.858Z,13.13
2022-10-09T01:18:15.511Z,14.73
2022-10-09T01:20:47.809Z,11.15
2022-10-09T01:23:44.345Z,14.70
2022-10-09T01:26:47.351Z,17.70
2022-10-09T01:29:16.354Z,10.98
2022-10-09T01:31:45.850Z,16.98
2022-10-09T01:34:14.748Z,10.20
2022-10-09T01:36:43.197Z,12.25
2022-10-09T01:39:14.365Z,12.85
2022-10-09T01:41:43.552Z,11.43
2022-10-09T01:44:19.240Z,11.05
2022-10-09T01:46:46.848Z,15.57
2022-10-09T01:49:21.391Z,15.48
2022-10-09T01:51:54.371Z,12.50
2022-10-09T01:54:25.937Z,14.60
2022-10-09T01:56:54.739Z,8.20
2022-10-09T01:59:24.195Z,8.88
2022-10-09T02:01:52.373Z,14.50
2022-10-09T02:04:20.252Z,13.07
2022-10-09T02:06:48.451Z,16.02
2022-10-09T02:09:17.552Z,14.73
2022-10-09T02:11:47.863Z,9.65
2022-10-09T02:14:15.270Z,14.40
2022-10-09T02:16:46.119Z,14.55
2022-10-09T02:19:17.685Z,19.20
2022-10-09T02:21:51.339Z,13.13
2022-10-09T02:24:22.822Z,11.73
2022-10-09T02:26:50.913Z,10.27
2022-10-09T02:29:18.358Z,13.85
2022-10-09T02:31:47.036Z,13.25
2022-10-09T02:34:17.573Z,9.77
2022-10-09T02:36:44.895Z,18.55
2022-10-09T02:39:12.515Z,10.48
2022-10-09T02:41:39.863Z,12.20
2022-10-09T02:44:08.220Z,14.77
2022-10-09T02:46:35.770Z,7.07
2022-10-09T02:49:04.676Z,15.43
2022-10-09T02:51:31.994Z,11.30
2022-10-09T02:54:00.189Z,8.27
2022-10-09T02:56:27.948Z,16.50
2022-10-09T02:58:55.589Z,13.45
2022-10-09T03:01:23.170Z,9.38
2022-10-09T03:03:50.667Z,11.50
2022-10-09T03:06:22.520Z,12.40
2022-10-09T03:08:50.923Z,8.88
2022-10-09T03:11:19.461Z,11.88
2022-10-09T03:13:47.253Z,11.70
2022-10-09T03:16:16.203Z,14.85
2022-10-09T03:18:43.919Z,9.68
2022-10-09T03:21:13.356Z,13.73
2022-10-09T03:23:42.825Z,12.52
2022-10-09T03:26:11.959Z,13.18
2022-10-09T03:28:41.040Z,8.02
2022-10-09T03:31:09.481Z,11.57
2022-10-09T03:33:37.880Z,12.75
2022-10-09T03:36:06.195Z,12.70
2022-10-09T03:38:33.610Z,8.02
2022-10-09T03:41:03.440Z,10.82
2022-10-09T03:43:30.925Z,19.15
2022-10-09T03:46:01.082Z,11.10
2022-10-09T03:48:28.590Z,11.77
2022-10-09T03:50:55.935Z,14.13
2022-10-09T03:53:23.262Z,14.98
2022-10-09T03:55:50.584Z,22.13
2022-10-09T03:58:19.238Z,14.98
2022-10-09T04:00:46.696Z,11.65
2022-10-09T04:03:14.089Z,13.73
2022-10-09T04:05:41.411Z,20.38
2022-10-09T04:08:09.368Z,14.30
2022-10-09T04:10:36.737Z,15.27
2022-10-09T04:13:04.180Z,21.98
2022-10-09T04:15:32.897Z,13.77
2022-10-09T04:18:00.236Z,15.02
2022-10-09T04:20:27.555Z,10.25
2022-10-09T04:22:54.899Z,12.15
2022-10-09T04:25:22.277Z,14.90
2022-10-09T04:27:49.612Z,15.68
2022-10-09T04:30:17.183Z,11.77
2022-10-09T04:32:48.101Z,9.23
2022-10-09T04:35:16.531Z,14.10
2022-10-09T04:37:43.858Z,14.20
2022-10-09T04:40:11.706Z,12.90
2022-10-09T04:42:39.094Z,12.57
2022-10-09T04:45:07.262Z,13.73
2022-10-09T04:47:34.833Z,15.48
2022-10-09T04:50:03.972Z,13.18
2022-10-09T04:52:31.333Z,21.48
2022-10-09T04:54:58.665Z,18.35
2022-10-09T04:57:25.996Z,13.48
2022-10-09T04:59:53.329Z,15.70
2022-10-09T05:02:20.709Z,17.13
2022-10-09T05:04:48.108Z,14.63
2022-10-09T05:07:16.748Z,13.25
2022-10-09T05:09:44.148Z,17.55
2022-10-09T05:12:11.470Z,17.65
2022-10-09T05:14:38.804Z,14.55
2022-10-09T05:17:14.266Z,11.27
2022-10-09T05:19:42.014Z,10.15
2022-10-09T05:22:09.380Z,14.32
2022-10-09T05:24:38.032Z,13.27
2022-10-09T05:27:05.872Z,23.50
2022-10-09T05:29:33.783Z,24.10
2022-10-09T05:32:01.180Z,46.72
2022-10-09T05:34:28.531Z,49.75
2022-10-09T05:36:55.850Z,26.45
2022-10-09T05:39:23.195Z,20.35
2022-10-09T05:41:51.863Z,41.78
2022-10-09T05:44:19.217Z,34.28
2022-10-09T05:46:46.537Z,25.65
2022-10-09T05:49:13.879Z,31.17
2022-10-09T05:51:42.647Z,25.92
2022-10-09T05:54:10.976Z,17.60
2022-10-09T05:56:39.650Z,15.98
2022-10-09T05:59:09.868Z,18.27
2022-10-09T06:01:38.698Z,21.55
2022-10-09T06:04:09.260Z,19.02
2022-10-09T06:06:38.870Z,21.63
2022-10-09T06:09:08.966Z,28.42
2022-10-09T06:11:37.659Z,26.80
2022-10-09T06:14:06.543Z,20.80
2022-10-09T06:16:37.126Z,17.45
2022-10-09T06:19:06.028Z,15.48
2022-10-09T06:21:34.935Z,12.80
2022-10-09T06:24:04.504Z,13.45
2022-10-09T06:26:32.456Z,14.88
2022-10-09T06:29:01.549Z,15.18
2022-10-09T06:31:30.908Z,12.25
2022-10-09T06:34:01.701Z,17.30
2022-10-09T06:36:30.899Z,12.32
2022-10-09T06:38:59.676Z,10.52
2022-10-09T06:41:28.325Z,14.00
2022-10-09T06:43:57.122Z,12.63
2022-10-09T06:46:26.729Z,16.90
2022-10-09T06:48:54.135Z,26.27
2022-10-09T06:51:24.595Z,23.38
2022-10-09T06:53:54.062Z,12.02
2022-10-09T06:56:23.057Z,10.15
2022-10-09T06:58:50.774Z,11.30
2022-10-09T07:01:21.407Z,11.65
2022-10-09T07:03:53.269Z,10.43
2022-10-09T07:06:23.964Z,26.05
2022-10-09T07:08:52.973Z,44.38
2022-10-09T07:11:22.374Z,17.13
2022-10-09T07:13:51.626Z,13.00
2022-10-09T07:16:21.474Z,6.40
2022-10-09T07:18:49.208Z,9.93
2022-10-09T07:21:16.906Z,13.35
2022-10-09T07:23:45.582Z,9.48
2022-10-09T07:26:15.394Z,7.78
2022-10-09T07:28:43.376Z,10.32
2022-10-09T07:31:11.481Z,10.43
2022-10-09T07:33:39.572Z,12.15
2022-10-09T07:36:08.270Z,10.45
2022-10-09T07:38:35.749Z,9.98
2022-10-09T07:41:06.250Z,12.18
2022-10-09T07:43:35.820Z,7.82
2022-10-09T07:46:04.190Z,7.53
2022-10-09T07:48:32.160Z,7.47
2022-10-09T07:51:08.306Z,10.18
2022-10-09T07:53:36.148Z,8.82
2022-10-09T07:56:05.708Z,10.35
2022-10-09T07:58:33.551Z,10.10
2022-10-09T08:01:04.920Z,8.32
2022-10-09T08:03:32.291Z,9.20
2022-10-09T08:05:59.625Z,8.82
2022-10-09T08:08:27.013Z,11.85
2022-10-09T08:10:54.383Z,10.45
2022-10-09T08:13:23.300Z,11.25
2022-10-09T08:15:50.697Z,10.20
2022-10-09T08:18:18.095Z,11.85
2022-10-09T08:20:45.555Z,12.02
2022-10-09T08:23:12.991Z,7.70
2022-10-09T08:25:40.314Z,11.27
2022-10-09T08:28:07.670Z,12.18
2022-10-09T08:30:36.349Z,11.98
2022-10-09T08:33:03.735Z,9.10
2022-10-09T08:35:34.443Z,11.88
2022-10-09T08:38:02.041Z,8.07
2022-10-09T08:40:35.079Z,9.75
2022-10-09T08:43:05.772Z,9.85
2022-10-09T08:45:33.881Z,12.13
2022-10-09T08:48:05.119Z,14.35
2022-10-09T08:50:34.545Z,9.25
2022-10-09T08:53:04.263Z,14.18
2022-10-09T08:55:34.051Z,12.05
2022-10-09T08:58:04.324Z,9.48
2022-10-09T09:00:35.303Z,6.93
2022-10-09T09:03:30.612Z,9.55
2022-10-09T09:06:06.101Z,12.30
2022-10-09T09:08:42.197Z,14.07
2022-10-09T09:11:21.673Z,12.00
2022-10-09T09:13:55.843Z,11.63
2022-10-09T09:16:38.464Z,10.48
2022-10-09T09:19:17.199Z,17.17
2022-10-09T09:21:49.147Z,12.48
2022-10-09T09:24:19.057Z,15.45
2022-10-09T09:26:51.771Z,9.52
2022-10-09T09:29:23.321Z,7.87
2022-10-09T09:31:53.196Z,11.80
2022-10-09T09:34:26.169Z,12.75
2022-10-09T09:36:55.352Z,12.15
2022-10-09T09:42:17.372Z,12.85
2022-10-09T09:44:50.903Z,14.23
2022-10-09T09:49:58.473Z,7.90
2022-10-09T09:52:28.656Z,13.10
2022-10-09T09:54:57.491Z,11.95
2022-10-09T09:57:34.284Z,10.30
2022-10-09T10:00:19.788Z,12.43
2022-10-09T10:02:47.703Z,12.85
2022-10-09T10:05:21.391Z,12.93
2022-10-09T10:10:24.927Z,10.02
2022-10-09T10:12:55.433Z,9.48
2022-10-09T10:15:25.147Z,10.05
2022-10-09T10:17:58.898Z,9.05
2022-10-09T10:20:28.393Z,7.85
2022-10-09T10:22:57.116Z,10.73
2022-10-09T10:25:26.227Z,14.23
2022-10-09T10:27:57.639Z,12.23
2022-10-09T10:30:24.994Z,14.15
2022-10-09T10:32:57.316Z,10.02
2022-10-09T10:35:25.935Z,11.82
2022-10-09T10:37:58.387Z,17.95
2022-10-09T10:40:27.693Z,11.93
2022-10-09T10:43:03.068Z,15.05
2022-10-09T10:45:32.453Z,11.75
2022-10-09T10:48:00.767Z,15.20
2022-10-09T10:50:30.929Z,16.83
2022-10-09T10:53:05.131Z,13.40
2022-10-09T10:55:43.267Z,12.63
2022-10-09T10:58:24.350Z,10.77
2022-10-09T11:00:57.499Z,9.57
2022-10-09T11:03:34.955Z,10.48
2022-10-09T11:06:06.999Z,13.00
2022-10-09T11:08:46.948Z,16.67
2022-10-09T11:11:18.856Z,11.07
2022-10-09T11:13:56.029Z,32.85
2022-10-09T11:16:35.068Z,13.48
2022-10-09T11:19:18.086Z,13.75
2022-10-09T11:21:54.064Z,11.70
2022-10-09T11:24:45.956Z,11.57
2022-10-09T11:27:18.042Z,9.55
2022-10-09T11:29:49.008Z,10.13
2022-10-09T11:32:19.216Z,10.93
2022-10-09T11:34:51.064Z,7.90
2022-10-09T11:37:22.178Z,10.00
2022-10-09T11:39:50.840Z,9.05
2022-10-09T11:42:22.824Z,6.28
2022-10-09T11:44:59.050Z,8.82
2022-10-09T11:47:31.664Z,6.85
2022-10-09T11:50:07.503Z,10.10
2022-10-09T11:52:42.347Z,12.07
2022-10-09T11:55:19.770Z,8.88
2022-10-09T11:57:47.538Z,7.60
2022-10-09T12:00:16.803Z,12.07
2022-10-09T12:02:44.958Z,10.38
2022-10-09T12:05:34.016Z,6.97
2022-10-09T12:08:08.349Z,6.88
2022-10-09T12:10:40.579Z,11.30
2022-10-09T12:13:08.815Z,10.55
2022-10-09T12:15:41.681Z,8.10
2022-10-09T12:18:17.149Z,9.40
2022-10-09T12:20:46.821Z,12.43
2022-10-09T12:23:26.298Z,6.70
2022-10-09T12:25:56.290Z,14.23
2022-10-09T12:28:29.022Z,13.93
2022-10-09T12:30:56.933Z,10.47
2022-10-09T12:33:27.539Z,11.90
2022-10-09T12:36:05.007Z,9.52
2022-10-09T12:38:32.891Z,12.95
2022-10-09T12:41:04.181Z,8.45
2022-10-09T12:43:32.306Z,9.65
2022-10-09T12:46:00.515Z,8.35
2022-10-09T12:48:29.944Z,8.77
2022-10-09T12:50:57.366Z,9.35
2022-10-09T12:53:26.697Z,9.73
2022-10-09T12:55:58.480Z,8.25
2022-10-09T12:58:29.148Z,10.70
2022-10-09T13:00:58.727Z,11.35
2022-10-09T13:03:33.877Z,11.20
2022-10-09T13:06:01.803Z,7.97
2022-10-09T13:08:31.957Z,12.15
2022-10-09T13:11:09.648Z,11.00
2022-10-09T13:13:38.897Z,9.70
2022-10-09T13:16:09.519Z,10.45
2022-10-09T13:18:37.574Z,10.73
2022-10-09T13:21:07.346Z,20.80
2022-10-09T13:23:36.293Z,10.50
2022-10-09T13:26:05.656Z,19.80
2022-10-09T13:28:33.098Z,11.98
2022-10-09T13:31:08.433Z,7.80
2022-10-09T13:33:35.877Z,10.73
2022-10-09T13:36:03.214Z,13.65
2022-10-09T13:38:34.813Z,12.07
2022-10-09T13:41:02.544Z,9.20
2022-10-09T13:43:31.063Z,12.57
2022-10-09T13:45:58.749Z,11.48
2022-10-09T13:48:29.363Z,10.57
2022-10-09T13:50:59.064Z,10.65
2022-10-09T13:53:27.890Z,7.18
2022-10-09T13:56:00.079Z,10.02
2022-10-09T13:58:28.466Z,11.25
2022-10-09T14:00:55.828Z,10.55
2022-10-09T14:03:23.215Z,11.32
2022-10-09T14:05:58.534Z,12.45
2022-10-09T14:08:26.453Z,11.75
2022-10-09T14:10:53.824Z,10.77
2022-10-09T14:13:21.767Z,18.17
2022-10-09T14:15:49.381Z,10.95
2022-10-09T14:18:16.791Z,9.13
2022-10-09T14:20:44.135Z,8.20
2022-10-09T14:23:13.305Z,13.98
2022-10-09T14:25:40.885Z,11.65
2022-10-09T14:28:08.381Z,16.35
2022-10-09T14:30:40.896Z,10.35
2022-10-09T14:33:08.376Z,10.50
2022-10-09T14:35:35.900Z,10.18
2022-10-09T14:38:03.318Z,8.50
2022-10-09T14:40:31.965Z,9.52
2022-10-09T14:42:59.312Z,13.95
2022-10-09T14:45:28.869Z,9.30
2022-10-09T14:47:56.210Z,9.48
2022-10-09T14:50:23.526Z,11.05
2022-10-09T14:52:51.271Z,15.15
2022-10-09T14:55:18.773Z,7.90
2022-10-09T14:57:47.431Z,11.80
2022-10-09T15:00:15.583Z,9.13
2022-10-09T15:05:15.279Z,14.05
2022-10-09T15:07:42.595Z,14.45
2022-10-09T15:10:10.480Z,11.05
2022-10-09T15:12:37.800Z,12.05
2022-10-09T15:15:07.481Z,11.90
2022-10-09T15:17:35.006Z,12.15
2022-10-09T15:20:02.340Z,12.57
2022-10-09T15:22:29.656Z,14.65
2022-10-09T15:24:56.988Z,14.48
2022-10-09T15:27:24.315Z,11.68
2022-10-09T15:29:51.641Z,10.00
2022-10-09T15:32:20.296Z,11.95
2022-10-09T15:34:47.663Z,13.68
2022-10-09T15:37:14.981Z,17.92
2022-10-09T15:39:42.343Z,13.82
2022-10-09T15:42:09.685Z,10.05
2022-10-09T15:44:37.083Z,17.95
2022-10-09T15:47:04.486Z,10.65
2022-10-09T15:49:33.186Z,20.75
2022-10-09T15:52:00.543Z,8.68
2022-10-09T15:54:28.008Z,11.38
2022-10-09T15:56:55.366Z,12.30
2022-10-09T15:59:22.794Z,13.70
2022-10-09T16:01:50.353Z,13.15
2022-10-09T16:04:17.745Z,15.18
2022-10-09T16:06:46.371Z,18.48
2022-10-09T16:09:13.928Z,11.43
2022-10-09T16:11:41.268Z,11.13
2022-10-09T16:14:08.594Z,15.40
2022-10-09T16:16:35.928Z,14.13
2022-10-09T16:19:04.001Z,17.13
2022-10-09T16:21:32.206Z,17.25
2022-10-09T16:24:01.461Z,17.80
2022-10-09T16:26:30.372Z,20.20
2022-10-09T16:28:57.971Z,16.77
2022-10-09T16:31:26.787Z,18.48
2022-10-09T16:33:54.116Z,15.98
2022-10-09T16:36:21.519Z,13.73
2022-10-09T16:38:49.131Z,12.13
2022-10-09T16:41:19.579Z,12.40
2022-10-09T16:43:48.340Z,8.45
2022-10-09T16:46:20.934Z,18.13
2022-10-09T16:48:48.884Z,12.10
2022-10-09T16:51:18.435Z,16.17
2022-10-09T16:53:46.313Z,9.73
2022-10-09T16:56:15.689Z,10.60
2022-10-09T16:58:44.658Z,19.95
2022-10-09T17:01:12.914Z,18.70
2022-10-09T17:03:41.200Z,14.20
2022-10-09T17:06:09.579Z,16.35
2022-10-09T17:08:37.174Z,14.77
2022-10-09T17:11:07.697Z,15.50
2022-10-09T17:13:35.065Z,15.38
2022-10-09T17:16:07.003Z,14.75
2022-10-09T17:18:34.666Z,19.70
2022-10-09T17:21:02.991Z,22.85
2022-10-09T17:23:30.395Z,17.42
2022-10-09T17:25:57.853Z,18.27
2022-10-09T17:28:25.275Z,25.15
2022-10-09T17:30:52.636Z,22.25
2022-10-09T17:33:21.288Z,26.13
2022-10-09T17:35:48.628Z,17.33
2022-10-09T17:38:15.971Z,24.75
2022-10-09T17:40:43.298Z,21.23
2022-10-09T17:43:10.689Z,18.40
2022-10-09T17:45:39.455Z,20.70
2022-10-09T17:48:07.547Z,18.35
2022-10-09T17:50:36.671Z,21.00
2022-10-09T17:53:04.296Z,13.93
2022-10-09T17:55:32.006Z,17.95
2022-10-09T17:58:00.342Z,14.95
2022-10-09T18:00:27.702Z,12.77
2022-10-09T18:02:55.032Z,14.10
2022-10-09T18:05:22.363Z,21.65
2022-10-09T18:07:51.397Z,19.35
2022-10-09T18:10:20.700Z,19.50
2022-10-09T18:12:48.267Z,17.98
2022-10-09T18:15:15.907Z,19.23
2022-10-09T18:17:43.376Z,14.57
2022-10-09T18:20:10.726Z,17.48
2022-10-09T18:22:38.315Z,24.83
2022-10-09T18:25:07.676Z,19.65
2022-10-09T18:27:35.072Z,17.80
2022-10-09T18:30:02.417Z,17.65
2022-10-09T18:32:29.754Z,18.50
2022-10-09T18:34:57.229Z,40.67
2022-10-09T18:37:24.761Z,55.92
2022-10-09T18:39:52.100Z,44.20
2022-10-09T18:42:20.793Z,36.50
2022-10-09T18:44:48.106Z,22.23
2022-10-09T18:47:17.427Z,22.10
2022-10-09T18:49:47.027Z,16.58
2022-10-09T18:52:15.066Z,17.38
2022-10-09T18:54:43.519Z,14.05
2022-10-09T18:57:11.260Z,13.38
2022-10-09T18:59:40.997Z,19.92
2022-10-09T19:02:08.380Z,17.83
2022-10-09T19:04:35.726Z,16.98
2022-10-09T19:07:03.063Z,15.52
2022-10-09T19:09:30.428Z,15.35
2022-10-09T19:11:57.765Z,14.70
2022-10-09T19:14:25.097Z,18.40
2022-10-09T19:16:53.976Z,24.92
2022-10-09T19:19:21.294Z,36.50
2022-10-09T19:21:48.623Z,23.85
2022-10-09T19:24:15.961Z,17.42
2022-10-09T19:26:43.299Z,21.52
2022-10-09T19:29:10.715Z,24.42
2022-10-09T19:31:38.046Z,17.70
2022-10-09T19:34:07.152Z,18.52
2022-10-09T19:36:36.616Z,13.38
2022-10-09T19:39:05.340Z,15.57
2022-10-09T19:41:32.692Z,15.57
2022-10-09T19:44:00.241Z,12.75
2022-10-09T19:46:28.076Z,11.30
2022-10-09T19:48:55.385Z,11.35
2022-10-09T19:51:25.641Z,18.77
2022-10-09T19:53:54.697Z,16.60
2022-10-09T19:56:24.334Z,16.38
2022-10-09T19:58:52.119Z,16.45
2022-10-09T20:01:20.878Z,18.58
2022-10-09T20:03:49.385Z,12.45
2022-10-09T20:06:16.838Z,15.48
2022-10-09T20:08:45.579Z,13.68
2022-10-09T20:11:13.843Z,15.88
2022-10-09T20:13:42.886Z,18.25
2022-10-09T20:16:12.809Z,13.70
2022-10-09T20:18:42.082Z,19.60
2022-10-09T20:21:09.816Z,14.48
2022-10-09T20:23:37.224Z,20.00
2022-10-09T20:26:07.639Z,17.38
2022-10-09T20:28:36.923Z,16.45
2022-10-09T20:31:06.864Z,14.30
2022-10-09T20:33:34.582Z,13.55
2022-10-09T20:36:02.039Z,15.77
2022-10-09T20:38:29.501Z,16.65
2022-10-09T20:41:02.661Z,16.85
2022-10-09T20:43:31.358Z,19.63
2022-10-09T20:45:58.725Z,17.23
2022-10-09T20:48:26.064Z,15.48
2022-10-09T20:50:53.426Z,19.02
2022-10-09T20:53:20.758Z,14.77
2022-10-09T20:55:48.133Z,17.25
2022-10-09T20:58:15.459Z,13.07
2022-10-09T21:00:44.626Z,16.77
2022-10-09T21:03:12.629Z,16.02
2022-10-09T21:05:43.491Z,12.40
2022-10-09T21:08:10.860Z,14.63
2022-10-09T21:10:43.348Z,23.35
2022-10-09T21:13:10.720Z,13.93
2022-10-09T21:15:43.664Z,12.98
2022-10-09T21:18:12.700Z,15.87
2022-10-09T21:20:40.254Z,10.60
2022-10-09T21:23:08.160Z,17.38
2022-10-09T21:25:35.480Z,18.02
2022-10-09T21:28:03.037Z,17.17
2022-10-09T21:30:30.500Z,13.75
2022-10-09T21:32:57.874Z,12.93
2022-10-09T21:35:26.525Z,14.93
2022-10-09T21:37:53.860Z,15.15
2022-10-09T21:40:23.605Z,10.52
2022-10-09T21:42:51.210Z,16.15
2022-10-09T21:45:18.676Z,13.52
2022-10-09T21:47:45.996Z,15.50
2022-10-09T21:50:13.315Z,19.35
2022-10-09T21:52:41.946Z,13.10
2022-10-09T21:55:09.790Z,12.90
2022-10-09T21:57:37.601Z,18.30
2022-10-09T22:00:05.748Z,15.90
2022-10-09T22:02:33.251Z,12.70
2022-10-09T22:05:00.567Z,14.23
2022-10-09T22:07:30.304Z,13.85
2022-10-09T22:09:58.962Z,13.32
2022-10-09T22:12:26.346Z,12.35
2022-10-09T22:14:53.698Z,11.80
2022-10-09T22:17:21.015Z,13.90
2022-10-09T22:19:48.370Z,10.93
2022-10-09T22:22:15.788Z,12.63
2022-10-09T22:24:43.507Z,13.07
2022-10-09T22:27:12.138Z,9.15
2022-10-09T22:29:39.465Z,10.02
2022-10-09T22:32:06.898Z,12.95
2022-10-09T22:34:34.210Z,14.60
2022-10-09T22:37:01.567Z,12.70
2022-10-09T22:39:29.108Z,13.70
2022-10-09T22:41:56.525Z,18.52
2022-10-09T22:44:25.168Z,14.48
2022-10-09T22:46:52.504Z,10.40
2022-10-09T22:49:19.826Z,13.35
2022-10-09T22:51:47.188Z,12.25
2022-10-09T22:54:14.624Z,12.63
2022-10-09T22:56:43.973Z,13.07
2022-10-09T22:59:12.484Z,11.00
2022-10-09T23:01:44.787Z,15.15
2022-10-09T23:04:13.684Z,12.43
2022-10-09T23:06:42.037Z,14.07
2022-10-09T23:09:10.994Z,16.85
2022-10-09T23:11:38.383Z,14.15
2022-10-09T23:14:06.052Z,10.85
2022-10-09T23:16:33.915Z,14.38
2022-10-09T23:19:06.764Z,13.40
2022-10-09T23:21:35.599Z,9.60
2022-10-09T23:24:03.152Z,9.05
2022-10-09T23:26:31.933Z,9.80
2022-10-09T23:29:01.733Z,17.40
2022-10-09T23:31:29.903Z,13.85
2022-10-09T23:33:58.220Z,18.23
2022-10-09T23:36:28.551Z,12.25
2022-10-09T23:38:56.808Z,14.35
2022-10-09T23:41:26.187Z,14.60
2022-10-09T23:43:53.779Z,10.05
2022-10-09T23:46:23.505Z,10.75
2022-10-09T23:48:51.527Z,10.70
2022-10-09T23:51:19.867Z,9.63
2022-10-09T23:53:48.858Z,18.25
2022-10-09T23:56:18.150Z,13.23
2022-10-09T23:58:45.816Z,15.35
